createdAt,value
2019-04-28T00:01:55.901Z,19.80
2019-04-28T00:04:26.515Z,19.00
2019-04-28T00:06:57.606Z,20.67
2019-04-28T00:09:31.248Z,20.37
2019-04-28T00:12:02.510Z,20.60
2019-04-28T00:14:33.136Z,19.90
2019-04-28T00:17:04.425Z,19.67
2019-04-28T00:19:34.975Z,20.70
2019-04-28T00:22:27.781Z,19.80
2019-04-28T00:25:21.469Z,20.13
2019-04-28T00:27:52.767Z,21.00
2019-04-28T00:30:26.895Z,20.40
2019-04-28T00:32:57.755Z,21.87
2019-04-28T00:35:28.582Z,20.13
2019-04-28T00:37:59.395Z,22.07
2019-04-28T00:40:31.634Z,19.40
2019-04-28T00:43:03.433Z,20.70
2019-04-28T00:45:33.940Z,21.20
2019-04-28T00:48:04.720Z,19.97
2019-04-28T00:50:35.372Z,21.50
2019-04-28T00:53:06.088Z,20.70
2019-04-28T00:55:36.835Z,20.67
2019-04-28T00:58:07.692Z,20.13
2019-04-28T01:00:41.416Z,20.80
2019-04-28T01:03:12.222Z,20.33
2019-04-28T01:05:42.742Z,18.57
2019-04-28T01:08:13.174Z,16.77
2019-04-28T01:10:43.534Z,18.40
2019-04-28T01:13:13.853Z,18.87
2019-04-28T01:16:02.309Z,18.87
2019-04-28T01:19:03.933Z,18.60
2019-04-28T01:21:51.977Z,20.33
2019-04-28T01:24:23.280Z,21.97
2019-04-28T01:26:55.433Z,23.50
2019-04-28T01:29:25.850Z,22.43
2019-04-28T01:32:15.442Z,22.87
2019-04-28T01:34:45.851Z,23.13
2019-04-28T01:37:16.308Z,24.50
2019-04-28T01:39:46.879Z,26.07
2019-04-28T01:42:17.209Z,24.60
2019-04-28T01:44:49.504Z,26.57
2019-04-28T01:47:20.531Z,23.70
2019-04-28T01:49:51.041Z,26.03
2019-04-28T01:52:21.498Z,22.97
2019-04-28T01:54:52.037Z,26.77
2019-04-28T01:57:22.577Z,24.90
2019-04-28T01:59:53.235Z,23.83
2019-04-28T02:02:24.207Z,22.07
2019-04-28T02:04:54.850Z,21.50
2019-04-28T02:07:25.714Z,21.70
2019-04-28T02:09:56.433Z,21.20
2019-04-28T02:12:27.143Z,20.83
2019-04-28T02:15:00.911Z,19.53
2019-04-28T02:17:31.617Z,18.00
2019-04-28T02:20:02.211Z,14.77
2019-04-28T02:22:44.457Z,15.77
2019-04-28T02:25:16.916Z,13.33
2019-04-28T02:27:47.516Z,14.87
2019-04-28T02:30:20.281Z,10.60
2019-04-28T02:32:51.902Z,10.67
2019-04-28T02:35:22.890Z,10.23
2019-04-28T02:37:54.215Z,10.10
2019-04-28T02:40:24.916Z,9.90
2019-04-28T02:42:55.556Z,12.20
2019-04-28T02:45:26.368Z,11.67
2019-04-28T02:48:01.125Z,9.50
2019-04-28T02:50:41.788Z,11.83
2019-04-28T02:53:20.876Z,10.10
2019-04-28T02:55:51.447Z,10.30
2019-04-28T02:58:22.671Z,11.50
2019-04-28T03:01:06.729Z,13.17
2019-04-28T03:03:25.875Z,13.00
2019-04-28T03:05:56.601Z,7.57
2019-04-28T03:08:27.259Z,7.17
2019-04-28T03:11:00.618Z,6.70
2019-04-28T03:13:31.127Z,7.63
2019-04-28T03:16:02.331Z,6.80
2019-04-28T03:18:33.206Z,6.50
2019-04-28T03:21:04.596Z,6.73
2019-04-28T03:23:35.584Z,5.90
2019-04-28T03:26:24.841Z,5.20
2019-04-28T03:29:04.507Z,7.10
2019-04-28T03:32:15.934Z,7.90
2019-04-28T03:34:43.547Z,9.57
2019-04-28T03:37:14.242Z,7.93
2019-04-28T03:39:54.115Z,7.60
2019-04-28T03:42:24.817Z,6.33
2019-04-28T03:44:57.174Z,6.90
2019-04-28T03:47:30.852Z,6.37
2019-04-28T03:50:00.574Z,6.37
2019-04-28T03:52:31.906Z,6.10
2019-04-28T03:55:02.912Z,6.60
2019-04-28T03:57:33.621Z,9.03
2019-04-28T04:00:05.489Z,15.77
2019-04-28T04:02:35.988Z,22.27
2019-04-28T04:05:06.954Z,23.50
2019-04-28T04:07:42.580Z,22.67
2019-04-28T04:10:16.985Z,15.67
2019-04-28T04:12:52.333Z,9.20
2019-04-28T04:15:54.178Z,6.70
2019-04-28T04:18:31.063Z,6.30
2019-04-28T04:21:02.042Z,6.40
2019-04-28T04:23:32.834Z,6.00
2019-04-28T04:26:03.857Z,5.03
2019-04-28T04:28:34.472Z,6.30
2019-04-28T04:31:05.886Z,8.47
2019-04-28T04:33:36.370Z,10.50
2019-04-28T04:36:07.107Z,12.57
2019-04-28T04:38:40.151Z,13.30
2019-04-28T04:41:11.373Z,14.30
2019-04-28T04:43:42.042Z,8.20
2019-04-28T04:46:16.826Z,6.67
2019-04-28T04:48:50.568Z,8.50
2019-04-28T04:51:21.529Z,6.20
2019-04-28T04:53:52.879Z,21.47
2019-04-28T04:56:23.713Z,26.67
2019-04-28T04:58:54.608Z,24.43
2019-04-28T05:01:50.385Z,24.00
2019-04-28T05:04:29.603Z,25.37
2019-04-28T05:06:59.957Z,25.90
2019-04-28T05:09:31.217Z,24.70
2019-04-28T05:12:02.182Z,25.60
2019-04-28T05:14:32.819Z,25.17
2019-04-28T05:17:03.715Z,25.70
2019-04-28T05:19:34.582Z,26.60
2019-04-28T05:22:05.638Z,26.80
2019-04-28T05:24:46.271Z,24.90
2019-04-28T05:27:17.350Z,24.70
2019-04-28T05:29:51.189Z,25.07
2019-04-28T05:32:20.821Z,20.27
2019-04-28T05:34:52.954Z,20.60
2019-04-28T05:37:23.672Z,22.20
2019-04-28T05:39:54.457Z,20.87
2019-04-28T05:42:25.266Z,20.60
2019-04-28T05:44:59.803Z,20.43
2019-04-28T05:47:31.692Z,20.50
2019-04-28T05:50:21.412Z,19.40
2019-04-28T05:53:00.752Z,18.77
2019-04-28T05:55:50.162Z,19.10
2019-04-28T05:58:30.260Z,19.57
2019-04-28T06:01:20.410Z,20.03
2019-04-28T06:03:51.022Z,20.90
2019-04-28T06:06:23.457Z,17.17
2019-04-28T06:09:16.018Z,11.50
2019-04-28T06:11:46.684Z,10.57
2019-04-28T06:14:17.232Z,9.70
2019-04-28T06:16:48.079Z,10.70
2019-04-28T06:19:20.205Z,11.73
2019-04-28T06:21:50.874Z,12.20
2019-04-28T06:24:21.572Z,12.27
2019-04-28T06:26:52.400Z,12.03
2019-04-28T06:29:24.113Z,11.07
2019-04-28T06:31:55.053Z,11.50
2019-04-28T06:34:26.756Z,8.67
2019-04-28T06:36:58.294Z,9.20
2019-04-28T06:39:30.724Z,9.07
2019-04-28T06:42:02.223Z,8.60
2019-04-28T06:44:32.838Z,8.87
2019-04-28T06:47:03.724Z,6.70
2019-04-28T06:49:34.391Z,7.13
2019-04-28T06:52:05.253Z,7.03
2019-04-28T06:54:38.877Z,6.60
2019-04-28T06:57:10.528Z,6.20
2019-04-28T06:59:41.715Z,5.93
2019-04-28T07:02:12.542Z,5.50
2019-04-28T07:05:01.193Z,5.13
2019-04-28T07:07:22.538Z,5.53
2019-04-28T07:09:53.238Z,5.63
2019-04-28T07:12:23.761Z,5.10
2019-04-28T07:14:55.451Z,5.10
2019-04-28T07:17:26.226Z,5.10
2019-04-28T07:20:08.050Z,4.83
2019-04-28T07:22:38.817Z,5.37
2019-04-28T07:25:09.709Z,5.60
2019-04-28T07:27:40.661Z,6.23
2019-04-28T07:30:11.617Z,5.77
2019-04-28T07:32:43.428Z,5.50
2019-04-28T07:35:14.225Z,6.27
2019-04-28T07:37:46.012Z,5.67
2019-04-28T07:40:17.365Z,5.80
2019-04-28T07:42:48.055Z,5.33
2019-04-28T07:45:18.940Z,6.67
2019-04-28T07:47:49.989Z,5.20
2019-04-28T07:50:24.952Z,6.13
2019-04-28T07:53:01.874Z,7.00
2019-04-28T07:55:32.830Z,6.30
2019-04-28T07:58:03.706Z,5.20
2019-04-28T08:00:34.858Z,4.87
2019-04-28T08:03:05.641Z,5.40
2019-04-28T08:05:36.510Z,8.70
2019-04-28T08:08:07.504Z,15.00
2019-04-28T08:10:38.539Z,10.93
2019-04-28T08:13:09.430Z,5.30
2019-04-28T08:15:40.221Z,5.10
2019-04-28T08:18:10.799Z,5.07
2019-04-28T08:20:41.365Z,5.43
2019-04-28T08:23:13.623Z,4.73
2019-04-28T08:25:44.751Z,4.97
2019-04-28T08:28:15.726Z,4.90
2019-04-28T08:30:47.649Z,6.80
2019-04-28T08:33:37.330Z,5.10
2019-04-28T08:36:08.055Z,4.40
2019-04-28T08:38:38.743Z,4.67
2019-04-28T08:41:09.630Z,4.33
2019-04-28T08:43:40.541Z,4.40
2019-04-28T08:46:11.412Z,4.40
2019-04-28T08:48:42.312Z,4.00
2019-04-28T08:51:13.007Z,4.20
2019-04-28T08:53:43.921Z,4.10
2019-04-28T08:56:14.682Z,4.50
2019-04-28T08:58:45.512Z,3.90
2019-04-28T09:01:16.121Z,4.73
2019-04-28T09:03:46.579Z,4.10
2019-04-28T09:06:17.275Z,4.20
2019-04-28T09:08:47.785Z,3.50
2019-04-28T09:11:18.645Z,4.77
2019-04-28T09:13:52.461Z,3.90
2019-04-28T09:16:22.995Z,4.13
2019-04-28T09:18:53.701Z,3.93
2019-04-28T09:21:24.401Z,3.40
2019-04-28T09:23:56.606Z,3.70
2019-04-28T09:26:27.571Z,4.03
2019-04-28T09:28:59.342Z,4.07
2019-04-28T09:31:30.168Z,4.23
2019-04-28T09:34:00.940Z,4.20
2019-04-28T09:36:32.114Z,3.80
2019-04-28T09:39:06.412Z,3.63
2019-04-28T09:42:15.819Z,4.13
2019-04-28T09:44:46.676Z,3.63
2019-04-28T09:47:17.352Z,3.60
2019-04-28T09:49:48.253Z,3.57
2019-04-28T09:52:19.528Z,3.63
2019-04-28T09:54:51.166Z,3.67
2019-04-28T09:57:21.915Z,3.93
2019-04-28T09:59:52.534Z,3.40
2019-04-28T10:02:23.254Z,3.47
2019-04-28T10:04:53.924Z,3.53
2019-04-28T10:07:24.529Z,3.50
2019-04-28T10:09:55.515Z,3.50
2019-04-28T10:12:27.480Z,3.70
2019-04-28T10:14:58.686Z,3.33
2019-04-28T10:17:30.171Z,3.50
2019-04-28T10:20:00.983Z,3.50
2019-04-28T10:22:31.713Z,4.10
2019-04-28T10:25:02.882Z,3.70
2019-04-28T10:27:33.600Z,3.60
2019-04-28T10:30:04.795Z,3.57
2019-04-28T10:32:36.435Z,4.00
2019-04-28T10:35:07.630Z,3.77
2019-04-28T10:37:38.338Z,3.50
2019-04-28T10:40:19.094Z,4.00
2019-04-28T10:42:49.578Z,3.50
2019-04-28T10:45:23.340Z,3.50
2019-04-28T10:47:54.132Z,3.43
2019-04-28T10:50:25.164Z,3.70
2019-04-28T10:52:56.087Z,3.47
2019-04-28T10:55:26.590Z,3.93
2019-04-28T10:57:57.570Z,3.40
2019-04-28T11:00:30.641Z,3.40
2019-04-28T11:03:01.379Z,3.43
2019-04-28T11:05:39.422Z,3.20
2019-04-28T11:08:18.040Z,4.70
2019-04-28T11:10:48.684Z,6.07
2019-04-28T11:13:19.430Z,6.37
2019-04-28T11:15:51.251Z,6.00
2019-04-28T11:18:21.979Z,8.50
2019-04-28T11:20:52.730Z,11.57
2019-04-28T11:23:23.401Z,12.33
2019-04-28T11:25:54.165Z,12.80
2019-04-28T11:28:24.743Z,11.97
2019-04-28T11:30:55.699Z,11.50
2019-04-28T11:34:01.383Z,11.73
2019-04-28T11:36:31.966Z,12.30
2019-04-28T11:39:03.251Z,11.70
2019-04-28T11:41:33.997Z,11.73
2019-04-28T11:44:04.943Z,10.37
2019-04-28T11:46:35.547Z,10.10
2019-04-28T11:49:06.341Z,11.70
2019-04-28T11:51:37.336Z,11.90
2019-04-28T11:54:08.339Z,10.40
2019-04-28T11:56:41.570Z,11.03
2019-04-28T11:59:11.444Z,11.10
2019-04-28T12:01:42.416Z,9.47
2019-04-28T12:04:14.397Z,10.23
2019-04-28T12:06:45.121Z,8.57
2019-04-28T12:09:46.743Z,9.10
2019-04-28T12:12:26.104Z,8.87
2019-04-28T12:15:04.947Z,8.40
2019-04-28T12:17:46.638Z,9.73
2019-04-28T12:20:22.606Z,8.10
2019-04-28T12:22:53.247Z,10.57
2019-04-28T12:25:23.905Z,9.77
2019-04-28T12:27:56.114Z,8.37
2019-04-28T12:30:26.705Z,7.60
2019-04-28T12:32:57.555Z,10.03
2019-04-28T12:35:28.119Z,8.90
2019-04-28T12:37:58.806Z,8.50
2019-04-28T12:40:29.547Z,7.93
2019-04-28T12:43:00.138Z,8.40
2019-04-28T12:45:35.310Z,8.00
2019-04-28T12:48:03.471Z,8.03
2019-04-28T12:50:39.575Z,8.60
2019-04-28T12:53:11.440Z,9.20
2019-04-28T12:55:42.301Z,8.63
2019-04-28T12:58:13.038Z,7.87
2019-04-28T13:01:15.090Z,8.27
2019-04-28T13:04:01.890Z,7.33
2019-04-28T13:06:32.810Z,7.90
2019-04-28T13:09:04.229Z,8.30
2019-04-28T13:11:38.051Z,8.47
2019-04-28T13:14:08.585Z,7.33
2019-04-28T13:16:39.493Z,8.50
2019-04-28T13:19:10.199Z,6.53
2019-04-28T13:21:40.896Z,6.10
2019-04-28T13:24:12.797Z,5.83
2019-04-28T13:26:43.701Z,5.83
2019-04-28T13:29:14.581Z,6.20
2019-04-28T13:31:45.156Z,6.13
2019-04-28T13:34:18.151Z,6.93
2019-04-28T13:36:48.966Z,6.60
2019-04-28T13:39:26.603Z,6.87
2019-04-28T13:41:57.542Z,7.47
2019-04-28T13:44:46.054Z,7.27
2019-04-28T13:47:16.821Z,8.30
2019-04-28T13:49:53.773Z,7.57
2019-04-28T13:52:24.476Z,7.30
2019-04-28T13:55:00.839Z,8.30
2019-04-28T13:57:31.691Z,9.10
2019-04-28T14:00:04.426Z,8.80
2019-04-28T14:02:53.973Z,9.23
2019-04-28T14:05:42.816Z,8.40
2019-04-28T14:08:14.755Z,6.90
2019-04-28T14:10:45.386Z,6.77
2019-04-28T14:13:16.234Z,7.40
2019-04-28T14:15:48.601Z,7.50
2019-04-28T14:18:19.486Z,7.20
2019-04-28T14:20:50.083Z,8.77
2019-04-28T14:23:22.256Z,8.90
2019-04-28T14:25:53.078Z,8.37
2019-04-28T14:28:24.122Z,8.97
2019-04-28T14:30:54.829Z,9.63
2019-04-28T14:33:25.429Z,8.73
2019-04-28T14:35:56.000Z,8.30
2019-04-28T14:38:26.468Z,9.10
2019-04-28T14:41:17.146Z,9.90
2019-04-28T14:43:47.889Z,9.87
2019-04-28T14:46:20.273Z,8.50
2019-04-28T14:48:51.060Z,8.37
2019-04-28T14:51:22.000Z,8.53
2019-04-28T14:53:53.682Z,8.57
2019-04-28T14:56:24.816Z,8.30
2019-04-28T14:58:55.574Z,7.47
2019-04-28T15:01:48.351Z,6.50
2019-04-28T15:04:29.654Z,7.30
2019-04-28T15:07:04.889Z,6.50
2019-04-28T15:09:57.845Z,5.67
2019-04-28T15:12:28.462Z,6.33
2019-04-28T15:14:59.109Z,6.33
2019-04-28T15:17:30.057Z,6.00
2019-04-28T15:20:01.084Z,6.70
2019-04-28T15:22:34.462Z,7.00
2019-04-28T15:25:06.428Z,6.93
2019-04-28T15:27:37.475Z,6.33
2019-04-28T15:30:08.353Z,6.43
2019-04-28T15:32:39.334Z,6.93
2019-04-28T15:35:10.165Z,6.17
2019-04-28T15:37:42.279Z,6.30
2019-04-28T15:40:13.816Z,6.60
2019-04-28T15:42:44.705Z,6.70
2019-04-28T15:45:17.458Z,6.50
2019-04-28T15:47:48.175Z,6.37
2019-04-28T15:50:19.704Z,6.33
2019-04-28T15:52:51.873Z,6.57
2019-04-28T15:55:28.478Z,6.60
2019-04-28T15:58:00.822Z,5.97
2019-04-28T16:00:31.440Z,6.23
2019-04-28T16:03:02.116Z,6.10
2019-04-28T16:05:32.851Z,6.33
2019-04-28T16:08:04.763Z,6.07
2019-04-28T16:10:36.991Z,6.47
2019-04-28T16:13:08.598Z,7.03
2019-04-28T16:15:40.269Z,6.37
2019-04-28T16:18:10.998Z,6.67
2019-04-28T16:20:41.857Z,6.43
2019-04-28T16:23:12.388Z,6.50
2019-04-28T16:25:43.085Z,7.20
2019-04-28T16:28:13.939Z,6.33
2019-04-28T16:30:44.714Z,6.30
2019-04-28T16:33:16.577Z,7.40
2019-04-28T16:35:47.168Z,7.50
2019-04-28T16:38:19.071Z,7.93
2019-04-28T16:41:04.863Z,7.70
2019-04-28T16:43:57.742Z,6.93
2019-04-28T16:46:28.401Z,6.57
2019-04-28T16:48:59.270Z,7.57
2019-04-28T16:51:30.447Z,6.90
2019-04-28T16:54:01.580Z,7.10
2019-04-28T16:56:55.348Z,6.97
2019-04-28T16:59:51.309Z,7.67
2019-04-28T17:02:40.665Z,7.87
2019-04-28T17:05:12.431Z,8.50
2019-04-28T17:07:52.345Z,7.80
2019-04-28T17:10:15.734Z,8.90
2019-04-28T17:12:47.196Z,9.00
2019-04-28T17:15:17.962Z,8.40
2019-04-28T17:17:48.857Z,9.10
2019-04-28T17:20:20.339Z,9.40
2019-04-28T17:22:51.020Z,10.50
2019-04-28T17:25:21.840Z,11.93
2019-04-28T17:27:52.953Z,12.57
2019-04-28T17:30:23.739Z,11.67
2019-04-28T17:32:54.631Z,12.33
2019-04-28T17:35:25.636Z,16.83
2019-04-28T17:38:06.354Z,17.53
2019-04-28T17:40:30.086Z,20.10
2019-04-28T17:43:00.986Z,19.80
2019-04-28T17:45:33.744Z,18.50
2019-04-28T17:48:13.903Z,14.07
2019-04-28T17:50:45.389Z,13.20
2019-04-28T17:53:16.481Z,14.40
2019-04-28T17:55:47.264Z,14.10
2019-04-28T17:58:17.873Z,13.43
2019-04-28T18:01:11.593Z,13.87
2019-04-28T18:03:52.643Z,12.30
2019-04-28T18:06:24.747Z,11.03
2019-04-28T18:08:55.767Z,10.10
2019-04-28T18:11:26.816Z,10.93
2019-04-28T18:13:57.440Z,14.17
2019-04-28T18:16:53.147Z,12.57
2019-04-28T18:19:24.318Z,12.60
2019-04-28T18:21:55.105Z,6.77
2019-04-28T18:24:25.987Z,6.90
2019-04-28T18:26:56.907Z,8.27
2019-04-28T18:29:27.840Z,7.90
2019-04-28T18:32:35.435Z,5.80
2019-04-28T18:35:15.893Z,5.30
2019-04-28T18:38:03.982Z,5.80
2019-04-28T18:41:03.270Z,6.43
2019-04-28T18:43:52.838Z,4.50
2019-04-28T18:46:28.780Z,6.10
2019-04-28T18:49:01.152Z,5.20
2019-04-28T18:51:32.461Z,4.70
2019-04-28T18:54:03.335Z,4.07
2019-04-28T18:56:34.089Z,5.13
2019-04-28T18:59:04.806Z,4.40
2019-04-28T19:02:00.434Z,5.00
2019-04-28T19:04:31.298Z,5.30
2019-04-28T19:07:05.179Z,4.80
2019-04-28T19:09:59.412Z,6.73
2019-04-28T19:12:40.762Z,4.80
2019-04-28T19:15:40.175Z,3.93
2019-04-28T19:18:19.499Z,3.63
2019-04-28T19:20:50.506Z,3.73
2019-04-28T19:23:21.284Z,3.43
2019-04-28T19:25:51.939Z,3.70
2019-04-28T19:28:22.910Z,3.40
2019-04-28T19:30:53.729Z,3.50
2019-04-28T19:33:24.537Z,3.00
2019-04-28T19:35:55.621Z,3.63
2019-04-28T19:38:26.318Z,4.10
2019-04-28T19:40:59.357Z,4.30
2019-04-28T19:43:31.624Z,3.97
2019-04-28T19:46:05.347Z,4.17
2019-04-28T19:48:37.389Z,4.17
2019-04-28T19:51:11.761Z,4.50
2019-04-28T19:53:42.900Z,4.23
2019-04-28T19:56:24.295Z,3.33
2019-04-28T19:59:03.639Z,3.27
2019-04-28T20:01:34.485Z,3.30
2019-04-28T20:04:05.300Z,3.10
2019-04-28T20:06:36.292Z,3.00
2019-04-28T20:09:07.935Z,2.40
2019-04-28T20:11:38.822Z,2.70
2019-04-28T20:14:09.858Z,4.90
2019-04-28T20:16:41.911Z,5.03
2019-04-28T20:19:12.642Z,5.13
2019-04-28T20:21:43.438Z,4.63
2019-04-28T20:24:14.458Z,4.37
2019-04-28T20:26:45.290Z,4.47
2019-04-28T20:29:16.199Z,4.33
2019-04-28T20:31:46.955Z,3.90
2019-04-28T20:34:18.075Z,4.10
2019-04-28T20:37:08.446Z,3.80
2019-04-28T20:39:39.220Z,3.63
2019-04-28T20:42:27.338Z,3.43
2019-04-28T20:44:58.283Z,3.40
2019-04-28T20:47:28.954Z,5.70
2019-04-28T20:49:59.895Z,6.20
2019-04-28T20:52:31.552Z,5.33
2019-04-28T20:55:02.192Z,4.23
2019-04-28T20:57:32.830Z,3.90
2019-04-28T21:00:05.184Z,4.90
2019-04-28T21:02:35.978Z,3.40
2019-04-28T21:05:07.095Z,3.67
2019-04-28T21:07:37.923Z,3.47
2019-04-28T21:10:09.061Z,3.60
2019-04-28T21:12:40.982Z,3.43
2019-04-28T21:15:11.773Z,3.07
2019-04-28T21:17:42.619Z,3.30
2019-04-28T21:20:13.457Z,3.07
2019-04-28T21:22:45.535Z,3.40
2019-04-28T21:25:16.463Z,3.30
2019-04-28T21:27:46.992Z,4.10
2019-04-28T21:30:17.905Z,3.90
2019-04-28T21:32:49.085Z,3.23
2019-04-28T21:35:19.776Z,3.10
2019-04-28T21:37:51.099Z,3.10
2019-04-28T21:40:22.170Z,3.47
2019-04-28T21:43:11.717Z,3.73
2019-04-28T21:46:04.263Z,5.10
2019-04-28T21:48:41.433Z,5.00
2019-04-28T21:51:12.436Z,5.10
2019-04-28T21:53:43.236Z,6.57
2019-04-28T21:56:13.895Z,4.40
2019-04-28T21:58:45.106Z,3.80
2019-04-28T22:01:19.392Z,3.43
2019-04-28T22:03:50.048Z,3.10
2019-04-28T22:06:20.746Z,3.10
2019-04-28T22:08:51.503Z,3.30
2019-04-28T22:11:22.312Z,3.67
2019-04-28T22:13:52.987Z,3.43
2019-04-28T22:16:24.017Z,3.00
2019-04-28T22:18:54.751Z,2.50
2019-04-28T22:21:25.476Z,2.80
2019-04-28T22:24:24.389Z,2.70
2019-04-28T22:26:55.994Z,2.50
2019-04-28T22:29:27.419Z,2.30
2019-04-28T22:31:59.306Z,2.57
2019-04-28T22:34:29.869Z,3.00
2019-04-28T22:37:00.467Z,3.60
2019-04-28T22:39:31.400Z,3.50
2019-04-28T22:42:02.304Z,3.80
2019-04-28T22:44:32.926Z,3.33
2019-04-28T22:47:03.701Z,3.50
2019-04-28T22:49:34.284Z,3.27
2019-04-28T22:52:04.949Z,3.50
2019-04-28T22:54:54.837Z,2.97
2019-04-28T22:57:47.273Z,3.30
2019-04-28T23:00:38.383Z,3.23
2019-04-28T23:03:10.603Z,3.07
2019-04-28T23:05:41.684Z,3.20
2019-04-28T23:08:12.553Z,3.63
2019-04-28T23:10:44.482Z,3.00
2019-04-28T23:13:15.125Z,3.57
2019-04-28T23:15:45.721Z,3.53
2019-04-28T23:18:16.725Z,3.50
2019-04-28T23:20:50.381Z,3.30
2019-04-28T23:23:21.101Z,3.50
2019-04-28T23:25:51.956Z,3.20
2019-04-28T23:28:22.727Z,3.67
2019-04-28T23:30:53.480Z,2.90
2019-04-28T23:33:24.141Z,3.30
2019-04-28T23:35:54.951Z,2.87
2019-04-28T23:38:25.966Z,2.73
2019-04-28T23:41:07.291Z,2.90
2019-04-28T23:43:37.873Z,3.00
2019-04-28T23:46:08.369Z,2.67
2019-04-28T23:48:40.225Z,2.67
2019-04-28T23:51:29.019Z,2.90
2019-04-28T23:54:04.762Z,3.10
2019-04-28T23:56:35.711Z,2.80
2019-04-28T23:59:06.639Z,3.70
